Time;durP1;ratioP1;P1;durP2;ratioP2;P2;SDS_P1;SDS_P2;PMS_P1;PMS_P2;Temp;Humidity;BMP_temperature;BMP_pressure;BME280_temperature;BME280_humidity;BME280_pressure;Samples;Min_cycle;Max_cycle;Signal;HPM_P1;HPM_P2
2023/07/09 00:01:43;;;;;;;;;;;20.60;99.90;;;;;;4874961;28;20020;-96
2023/07/09 00:04:33;;;;;;;;;;;20.50;99.90;;;;;;4947872;28;19925;-96
2023/07/09 00:07:12;;;;;;;;;;;20.50;99.90;;;;;;4944109;28;19977;-96
2023/07/09 00:12:56;;;;;;;;;;;20.40;99.90;;;;;;4880220;28;20025;-96
2023/07/09 00:21:33;;;;;;;;;;;20.30;99.90;;;;;;4899139;29;19927;-96
2023/07/09 00:25:04;;;;;;;;;;;20.30;99.90;;;;;;4966143;28;19930;-96
2023/07/09 00:27:55;;;;;;;;;;;20.10;99.90;;;;;;4961232;28;20365;-96
2023/07/09 00:31:07;;;;;;;;;;;20.20;99.90;;;;;;4901819;28;20399;-96
2023/07/09 00:36:10;;;;;;;;;;;20.10;99.90;;;;;;4955895;28;20382;-96
2023/07/09 00:39:12;;;;;;;;;;;20.10;99.90;;;;;;4949664;28;20431;-96
2023/07/09 00:41:59;;;;;;;;;;;19.90;99.90;;;;;;4928947;28;19933;-96
2023/07/09 00:44:54;;;;;;;;;;;19.80;99.90;;;;;;4942703;28;19981;-96
2023/07/09 00:48:02;;;;;;;;;;;19.80;99.90;;;;;;4955803;28;20005;-96
2023/07/09 00:51:45;;;;;;;;;;;;;;;;;;;;;
2023/07/09 00:54:14;;;;;;;;;;;19.70;99.90;;;;;;4980159;28;20393;-96
2023/07/09 00:57:42;;;;;;;;;;;19.70;99.90;;;;;;4968305;28;20067;-96
2023/07/09 01:00:46;;;;;;;;;;;19.40;99.90;;;;;;4912623;28;19956;-96
2023/07/09 01:03:23;;;;;;;;;;;19.60;99.90;;;;;;4966176;28;20032;-96
2023/07/09 01:10:07;;;;;;;;;;;;;;;;;;;;;
2023/07/09 01:12:13;;;;;;;;;;;19.60;99.90;;;;;;4958168;28;19984;-96
2023/07/09 01:17:40;;;;;;;;;;;19.60;99.90;;;;;;4926451;29;19930;-96
2023/07/09 01:20:22;;;;;;;;;;;19.60;99.90;;;;;;4934974;28;19973;-96
2023/07/09 01:22:56;;;;;;;;;;;19.60;99.90;;;;;;4933824;29;19959;-96
2023/07/09 01:28:52;;;;;;;;;;;19.60;99.90;;;;;;4914475;29;19926;-96
2023/07/09 01:31:32;;;;;;;;;;;19.50;99.90;;;;;;4921989;28;19937;-96
2023/07/09 01:34:06;;;;;;;;;;;19.50;99.90;;;;;;4938873;29;19927;-96
2023/07/09 01:36:32;;;;;;;;;;;19.40;99.90;;;;;;4937653;29;20081;-96
2023/07/09 01:39:28;;;;;;;;;;;19.40;99.90;;;;;;4922439;29;20453;-96
2023/07/09 01:42:00;;;;;;;;;;;19.40;99.90;;;;;;4933583;29;19927;-96
2023/07/09 01:44:53;;;;;;;;;;;19.40;99.90;;;;;;4918864;29;19977;-96
2023/07/09 01:48:04;;;;;;;;;;;19.40;99.90;;;;;;4949764;28;19998;-96
2023/07/09 01:50:54;;;;;;;;;;;;;;;;;;;;;
2023/07/09 01:53:56;;;;;;;;;;;19.30;99.90;;;;;;4977212;28;19936;-96
2023/07/09 01:56:30;;;;;;;;;;;19.20;99.90;;;;;;4938450;28;19930;-96
2023/07/09 01:59:22;;;;;;;;;;;19.20;99.90;;;;;;4993882;28;20392;-96
2023/07/09 02:02:23;;;;;;;;;;;19.20;99.90;;;;;;4977029;28;19981;-96
2023/07/09 02:05:24;;;;;;;;;;;19.20;99.90;;;;;;4979672;28;19930;-96
2023/07/09 02:08:08;;;;;;;;;;;19.20;99.90;;;;;;4950946;28;19981;-96
2023/07/09 02:11:10;;;;;;;;;;;;;;;;;;;;;
2023/07/09 02:14:27;;;;;;;;;;;19.10;99.90;;;;;;4992970;28;19934;-96
2023/07/09 02:17:01;;;;;;;;;;;19.10;99.90;;;;;;4987945;28;20125;-96
2023/07/09 02:19:47;;;;;;;;;;;19.10;99.90;;;;;;4994738;28;19921;-95
2023/07/09 02:22:25;;;;;;;;;;;19.10;99.90;;;;;;4978166;28;19960;-96
2023/07/09 02:25:09;;;;;;;;;;;19.00;99.90;;;;;;4976702;28;19925;-96
2023/07/09 02:27:36;;;;;;;;;;;19.00;99.90;;;;;;4976626;28;19926;-95
2023/07/09 02:30:21;;;;;;;;;;;19.10;99.90;;;;;;4975760;28;19976;-96
2023/07/09 02:33:32;;;;;;;;;;;19.00;99.90;;;;;;4959194;28;19941;-96
2023/07/09 02:36:22;;;;;;;;;;;19.00;99.90;;;;;;4976828;28;19925;-96
2023/07/09 02:38:54;;;;;;;;;;;19.10;99.90;;;;;;4976647;28;19930;-96
2023/07/09 02:41:55;;;;;;;;;;;18.90;99.90;;;;;;4992875;28;19929;-95
2023/07/09 02:44:36;;;;;;;;;;;18.90;99.90;;;;;;4978042;28;19930;-96
2023/07/09 02:47:27;;;;;;;;;;;18.80;99.90;;;;;;4992461;28;19937;-96
2023/07/09 02:53:18;;;;;;;;;;;18.60;99.90;;;;;;5009470;28;19953;-96
2023/07/09 02:55:35;;;;;;;;;;;18.80;99.90;;;;;;4988383;28;20341;-96
2023/07/09 02:58:31;;;;;;;;;;;18.70;99.90;;;;;;4955590;28;19969;-96
2023/07/09 03:04:39;;;;;;;;;;;18.60;99.90;;;;;;4908002;29;20070;-96
2023/07/09 03:07:28;;;;;;;;;;;18.80;99.90;;;;;;4908821;29;19978;-96
2023/07/09 03:10:38;;;;;;;;;;;18.70;99.90;;;;;;4891345;29;19937;-96
2023/07/09 03:13:15;;;;;;;;;;;18.70;99.90;;;;;;4893029;29;19942;-96
2023/07/09 03:15:59;;;;;;;;;;;18.60;99.90;;;;;;4918606;29;19931;-96
2023/07/09 03:21:18;;;;;;;;;;;18.70;99.90;;;;;;4918092;29;19978;-96
2023/07/09 03:24:18;;;;;;;;;;;18.60;99.90;;;;;;4905101;29;19934;-96
2023/07/09 03:29:44;;;;;;;;;;;;;;;;;;;;;
2023/07/09 03:32:40;;;;;;;;;;;18.70;99.90;;;;;;4915834;29;19931;-95
2023/07/09 03:35:36;;;;;;;;;;;18.70;99.90;;;;;;4907425;29;19993;-96
2023/07/09 03:38:17;;;;;;;;;;;18.70;99.90;;;;;;4958618;28;19989;-95
2023/07/09 03:41:16;;;;;;;;;;;18.60;99.90;;;;;;4951925;28;19993;-96
2023/07/09 03:44:04;;;;;;;;;;;18.80;99.90;;;;;;4928545;28;19926;-96
2023/07/09 03:46:38;;;;;;;;;;;18.70;99.90;;;;;;4870478;29;20412;-95
2023/07/09 03:52:27;;;;;;;;;;;18.80;99.90;;;;;;4972319;28;19930;-95
2023/07/09 03:54:56;;;;;;;;;;;18.80;99.90;;;;;;4975126;28;19926;-96
2023/07/09 03:58:28;;;;;;;;;;;18.80;99.90;;;;;;4986675;28;20016;-96
2023/07/09 04:01:35;;;;;;;;;;;;;;;;;;;;;
2023/07/09 04:04:20;;;;;;;;;;;18.90;99.90;;;;;;4974716;28;20363;-96
2023/07/09 04:07:21;;;;;;;;;;;18.90;99.90;;;;;;4958824;28;19934;-96
2023/07/09 04:10:02;;;;;;;;;;;18.90;99.90;;;;;;4903234;28;19933;-96
2023/07/09 04:12:57;;;;;;;;;;;19.00;99.90;;;;;;4957724;28;20397;-96
2023/07/09 04:15:29;;;;;;;;;;;19.00;99.90;;;;;;4951012;28;19932;-96
2023/07/09 04:18:12;;;;;;;;;;;19.10;99.90;;;;;;4958072;28;19972;-96
2023/07/09 04:21:01;;;;;;;;;;;19.10;99.90;;;;;;4947218;28;19937;-96
2023/07/09 04:23:27;;;;;;;;;;;19.10;99.90;;;;;;4924154;28;20334;-96
2023/07/09 04:26:40;;;;;;;;;;;19.20;99.90;;;;;;4976374;28;19943;-96
2023/07/09 04:36:15;;;;;;;;;;;19.40;99.90;;;;;;4946902;28;19926;-95
2023/07/09 04:42:34;;;;;;;;;;;19.70;99.90;;;;;;4903577;29;19926;-96
2023/07/09 04:45:06;;;;;;;;;;;19.90;99.90;;;;;;4909847;29;19926;-96
2023/07/09 04:47:56;;;;;;;;;;;;;;;;;;;;;
2023/07/09 04:50:56;;;;;;;;;;;19.80;99.90;;;;;;4950179;29;19998;-96
2023/07/09 04:53:37;;;;;;;;;;;20.00;99.90;;;;;;4935304;29;19927;-94
2023/07/09 05:01:52;;;;;;;;;;;20.10;99.90;;;;;;4936044;28;19926;-96
2023/07/09 05:04:40;;;;;;;;;;;20.30;99.90;;;;;;4989924;28;19969;-96
2023/07/09 05:08:42;;;;;;;;;;;20.20;99.90;;;;;;4991028;28;19925;-96
2023/07/09 05:11:01;;;;;;;;;;;20.50;99.90;;;;;;4975380;28;19934;-96
2023/07/09 05:13:57;;;;;;;;;;;20.60;99.90;;;;;;4989114;28;19971;-96
2023/07/09 05:16:48;;;;;;;;;;;20.80;99.90;;;;;;4974318;28;20394;-96
2023/07/09 05:22:47;;;;;;;;;;;20.90;99.90;;;;;;4943597;28;20402;-95
2023/07/09 05:25:19;;;;;;;;;;;21.10;99.90;;;;;;4973485;28;19930;-96
2023/07/09 05:27:44;;;;;;;;;;;21.30;99.90;;;;;;4967996;28;19973;-96
2023/07/09 05:30:13;;;;;;;;;;;21.50;99.90;;;;;;4972513;28;19969;-96
2023/07/09 05:32:45;;;;;;;;;;;21.40;99.90;;;;;;4971179;28;20013;-96
2023/07/09 05:35:14;;;;;;;;;;;21.50;99.90;;;;;;4966161;28;19984;-95
2023/07/09 05:37:39;;;;;;;;;;;21.70;99.90;;;;;;4964938;28;19930;-95
2023/07/09 05:40:06;;;;;;;;;;;21.80;99.90;;;;;;4977281;28;19937;-95
2023/07/09 05:42:32;;;;;;;;;;;21.90;99.90;;;;;;4970523;28;19925;-96
2023/07/09 05:44:58;;;;;;;;;;;22.00;99.90;;;;;;4970799;28;20025;-95
2023/07/09 05:47:24;;;;;;;;;;;22.10;99.90;;;;;;4969164;28;19925;-94
2023/07/09 05:49:50;;;;;;;;;;;22.10;99.90;;;;;;4970526;28;19930;-94
2023/07/09 05:52:17;;;;;;;;;;;22.20;99.90;;;;;;4970191;28;19941;-95
2023/07/09 05:54:43;;;;;;;;;;;22.30;99.90;;;;;;4969676;28;19977;-94
2023/07/09 05:57:08;;;;;;;;;;;22.40;99.90;;;;;;4970943;28;19992;-94
2023/07/09 05:59:34;;;;;;;;;;;22.60;99.90;;;;;;4954154;28;20421;-95
2023/07/09 06:02:00;;;;;;;;;;;22.70;99.90;;;;;;4969863;28;20036;-96
2023/07/09 06:04:26;;;;;;;;;;;22.70;99.90;;;;;;4954213;28;20024;-95
2023/07/09 06:06:53;;;;;;;;;;;22.70;99.90;;;;;;4950877;28;20016;-95
2023/07/09 06:09:19;;;;;;;;;;;22.90;99.90;;;;;;4954506;28;19930;-96
2023/07/09 06:11:44;;;;;;;;;;;22.90;99.90;;;;;;4954225;28;19933;-95
2023/07/09 06:14:10;;;;;;;;;;;22.90;99.90;;;;;;4956135;28;19936;-95
2023/07/09 06:16:37;;;;;;;;;;;22.90;99.90;;;;;;4954631;28;20021;-96
2023/07/09 06:19:03;;;;;;;;;;;22.90;99.90;;;;;;4958391;28;19925;-95
2023/07/09 06:21:29;;;;;;;;;;;22.90;99.90;;;;;;4956965;28;19969;-96
2023/07/09 06:23:54;;;;;;;;;;;22.90;99.90;;;;;;4959935;28;19973;-96
2023/07/09 06:26:20;;;;;;;;;;;22.90;99.90;;;;;;4951933;28;19930;-96
2023/07/09 06:28:46;;;;;;;;;;;22.90;99.90;;;;;;4955910;28;19973;-95
2023/07/09 06:31:12;;;;;;;;;;;22.90;99.90;;;;;;4951106;28;19942;-96
2023/07/09 06:33:37;;;;;;;;;;;23.00;99.90;;;;;;4943434;28;19934;-95
2023/07/09 06:36:04;;;;;;;;;;;23.00;99.90;;;;;;4951733;28;20016;-96
2023/07/09 06:38:30;;;;;;;;;;;23.10;99.90;;;;;;4957522;28;19936;-95
2023/07/09 06:40:57;;;;;;;;;;;23.20;99.90;;;;;;4956970;28;19949;-96
2023/07/09 06:43:22;;;;;;;;;;;23.40;99.90;;;;;;4956536;28;19973;-95
2023/07/09 06:45:50;;;;;;;;;;;23.60;99.90;;;;;;4957574;28;19983;-95
2023/07/09 06:48:16;;;;;;;;;;;23.80;99.90;;;;;;4957811;28;19968;-95
2023/07/09 06:50:42;;;;;;;;;;;24.00;99.90;;;;;;4954402;28;19980;-95
2023/07/09 06:53:07;;;;;;;;;;;24.20;99.90;;;;;;4964306;28;19929;-96
2023/07/09 06:55:33;;;;;;;;;;;24.30;99.90;;;;;;4960243;28;19951;-96
2023/07/09 06:57:59;;;;;;;;;;;24.40;99.90;;;;;;4961870;28;19940;-94
2023/07/09 07:00:24;;;;;;;;;;;24.60;99.90;;;;;;4974373;28;19949;-94
2023/07/09 07:02:50;;;;;;;;;;;24.70;99.90;;;;;;4972693;28;19934;-95
2023/07/09 07:05:17;;;;;;;;;;;24.80;99.90;;;;;;4971885;28;19929;-95
2023/07/09 07:07:44;;;;;;;;;;;24.80;99.90;;;;;;4972839;28;19929;-95
2023/07/09 07:10:10;;;;;;;;;;;24.80;99.90;;;;;;4970819;28;20251;-95
2023/07/09 07:12:41;;;;;;;;;;;24.90;99.90;;;;;;4970790;28;19934;-95
2023/07/09 07:15:07;;;;;;;;;;;25.00;99.90;;;;;;4972515;28;19932;-96
2023/07/09 07:17:33;;;;;;;;;;;25.20;99.90;;;;;;4972515;28;20531;-95
2023/07/09 07:19:59;;;;;;;;;;;25.20;99.90;;;;;;4972636;28;19930;-96
2023/07/09 07:22:24;;;;;;;;;;;25.30;99.90;;;;;;4972447;28;19936;-95
2023/07/09 07:24:50;;;;;;;;;;;25.40;99.90;;;;;;4971237;28;19934;-95
2023/07/09 07:27:16;;;;;;;;;;;25.60;99.90;;;;;;4972660;28;19926;-96
2023/07/09 07:29:41;;;;;;;;;;;25.80;99.90;;;;;;4972573;28;19933;-96
2023/07/09 07:32:07;;;;;;;;;;;26.00;99.90;;;;;;4970109;28;20044;-96
2023/07/09 07:34:33;;;;;;;;;;;26.20;99.90;;;;;;4972787;28;19977;-96
2023/07/09 07:36:59;;;;;;;;;;;26.40;99.90;;;;;;4969299;28;19982;-95
2023/07/09 07:39:24;;;;;;;;;;;26.60;99.90;;;;;;4963649;28;20298;-95
2023/07/09 07:41:50;;;;;;;;;;;26.80;99.90;;;;;;4972040;28;19936;-95
2023/07/09 07:44:16;;;;;;;;;;;26.80;99.90;;;;;;4972905;28;19930;-95
2023/07/09 07:46:42;;;;;;;;;;;26.90;99.90;;;;;;4972325;28;19995;-95
2023/07/09 07:49:08;;;;;;;;;;;27.00;99.90;;;;;;4968400;28;20363;-95
2023/07/09 07:51:33;;;;;;;;;;;26.90;99.90;;;;;;4974125;28;19973;-96
2023/07/09 07:53:59;;;;;;;;;;;26.80;99.90;;;;;;4974979;28;19933;-96
2023/07/09 07:56:25;;;;;;;;;;;26.80;99.90;;;;;;4974676;28;19930;-96
2023/07/09 08:01:22;;;;;;;;;;;26.60;99.90;;;;;;4974123;28;19930;-89
2023/07/09 08:03:48;;;;;;;;;;;26.70;99.90;;;;;;4981537;28;19995;-89
2023/07/09 08:06:17;;;;;;;;;;;26.90;99.90;;;;;;4958544;28;19933;-88
2023/07/09 08:08:51;;;;;;;;;;;27.00;99.90;;;;;;4956956;28;19933;-87
2023/07/09 08:11:20;;;;;;;;;;;27.10;99.90;;;;;;4956941;28;19936;-87
2023/07/09 08:13:49;;;;;;;;;;;27.10;99.90;;;;;;4963006;28;20503;-87
2023/07/09 08:16:15;;;;;;;;;;;27.40;99.90;;;;;;4960302;28;19979;-87
2023/07/09 08:18:43;;;;;;;;;;;27.70;99.90;;;;;;4955988;28;19933;-87
2023/07/09 08:21:15;;;;;;;;;;;27.70;99.90;;;;;;4967517;28;19922;-88
2023/07/09 08:23:41;;;;;;;;;;;27.80;99.90;;;;;;4964494;28;20044;-87
2023/07/09 08:26:07;;;;;;;;;;;28.00;99.90;;;;;;4972606;28;20480;-87
2023/07/09 08:28:38;;;;;;;;;;;28.10;99.90;;;;;;4975399;28;20404;-87
2023/07/09 08:31:08;;;;;;;;;;;28.10;99.90;;;;;;4959745;28;19933;-87
2023/07/09 08:33:33;;;;;;;;;;;28.30;99.90;;;;;;4962587;28;19925;-87
2023/07/09 08:35:59;;;;;;;;;;;28.20;99.90;;;;;;4975039;28;19933;-87
2023/07/09 08:38:25;;;;;;;;;;;28.30;99.90;;;;;;4975437;28;19930;-87
2023/07/09 08:40:59;;;;;;;;;;;28.30;99.90;;;;;;4974008;28;19948;-87
2023/07/09 08:43:31;;;;;;;;;;;28.30;99.90;;;;;;4943660;28;19926;-87
2023/07/09 08:46:06;;;;;;;;;;;28.40;99.90;;;;;;4972996;28;20426;-88
2023/07/09 08:48:33;;;;;;;;;;;28.30;99.90;;;;;;4975278;28;19941;-87
2023/07/09 08:51:00;;;;;;;;;;;28.50;99.90;;;;;;4973574;28;20013;-87
2023/07/09 08:53:30;;;;;;;;;;;28.50;99.90;;;;;;4955332;28;19930;-87
2023/07/09 08:55:56;;;;;;;;;;;28.70;99.90;;;;;;4974259;28;19929;-87
2023/07/09 08:58:24;;;;;;;;;;;28.80;99.90;;;;;;4974203;28;19980;-87
2023/07/09 09:00:54;;;;;;;;;;;29.00;99.90;;;;;;4956966;28;20297;-87
2023/07/09 09:03:19;;;;;;;;;;;29.10;99.90;;;;;;4970959;28;20324;-86
2023/07/09 09:05:46;;;;;;;;;;;29.30;99.90;;;;;;4971747;28;20563;-87
2023/07/09 09:08:19;;;;;;;;;;;29.40;99.90;;;;;;4972271;28;19926;-87
2023/07/09 09:10:51;;;;;;;;;;;29.50;99.90;;;;;;4971162;28;19968;-87
2023/07/09 09:13:20;;;;;;;;;;;29.70;99.90;;;;;;4971396;28;19926;-87
2023/07/09 09:15:46;;;;;;;;;;;29.70;99.90;;;;;;4990096;28;19929;-87
2023/07/09 09:18:20;;;;;;;;;;;29.80;99.90;;;;;;4976992;28;20404;-87
2023/07/09 09:20:56;;;;;;;;;;;29.80;99.90;;;;;;4959660;28;20017;-87
2023/07/09 09:23:25;;;;;;;;;;;29.90;99.90;;;;;;4955568;28;20034;-86
2023/07/09 09:25:53;;;;;;;;;;;29.90;99.90;;;;;;4969843;28;19929;-87
2023/07/09 09:28:19;;;;;;;;;;;29.90;99.90;;;;;;4971821;28;20009;-87
2023/07/09 09:30:45;;;;;;;;;;;29.80;99.90;;;;;;4980580;28;20506;-87
2023/07/09 09:33:12;;;;;;;;;;;29.80;99.90;;;;;;4957528;28;20333;-87
2023/07/09 09:35:39;;;;;;;;;;;29.80;99.90;;;;;;4954740;28;20374;-87
2023/07/09 09:38:12;;;;;;;;;;;29.90;99.90;;;;;;4971513;28;19937;-87
2023/07/09 09:40:38;;;;;;;;;;;30.00;99.90;;;;;;4980392;28;19930;-87
2023/07/09 09:43:09;;;;;;;;;;;30.10;99.90;;;;;;4969488;28;20478;-87
2023/07/09 09:45:38;;;;;;;;;;;30.10;99.90;;;;;;4954039;28;20217;-88
2023/07/09 09:48:12;;;;;;;;;;;30.10;99.90;;;;;;4958396;28;19930;-87
2023/07/09 09:50:40;;;;;;;;;;;30.10;99.90;;;;;;4958630;28;20076;-87
2023/07/09 09:53:07;;;;;;;;;;;30.10;99.90;;;;;;4958731;28;20029;-87
2023/07/09 09:55:33;;;;;;;;;;;30.10;99.90;;;;;;4958209;28;20341;-87
2023/07/09 09:57:59;;;;;;;;;;;30.00;99.90;;;;;;4958968;28;19930;-88
2023/07/09 10:00:25;;;;;;;;;;;30.10;99.90;;;;;;4970206;28;19936;-87
2023/07/09 10:02:56;;;;;;;;;;;30.10;99.90;;;;;;4959538;28;19972;-87
2023/07/09 10:05:27;;;;;;;;;;;30.10;99.90;;;;;;4974127;28;19965;-87
2023/07/09 10:08:01;;;;;;;;;;;30.20;99.90;;;;;;4957776;28;19934;-87
2023/07/09 10:10:28;;;;;;;;;;;30.30;99.90;;;;;;4961301;28;19925;-88
2023/07/09 10:12:58;;;;;;;;;;;30.30;99.90;;;;;;4978182;28;19948;-86
2023/07/09 10:15:39;;;;;;;;;;;30.50;99.90;;;;;;4959377;28;20016;-87
2023/07/09 10:18:06;;;;;;;;;;;30.50;99.90;;;;;;4958544;28;19937;-88
2023/07/09 10:20:43;;;;;;;;;;;30.50;99.90;;;;;;4970556;28;20113;-87
2023/07/09 10:23:20;;;;;;;;;;;30.50;99.90;;;;;;4971251;28;19945;-87
2023/07/09 10:25:47;;;;;;;;;;;30.60;99.90;;;;;;4967092;28;19972;-88
2023/07/09 10:28:15;;;;;;;;;;;30.70;99.90;;;;;;4980020;28;19940;-88
2023/07/09 10:30:41;;;;;;;;;;;30.70;99.90;;;;;;4993151;28;19937;-87
2023/07/09 10:33:09;;;;;;;;;;;30.70;99.90;;;;;;4993558;28;19936;-87
2023/07/09 10:35:52;;;;;;;;;;;30.70;99.90;;;;;;4966036;28;20365;-88
2023/07/09 10:38:22;;;;;;;;;;;30.70;99.90;;;;;;4986771;28;20389;-88
2023/07/09 10:40:52;;;;;;;;;;;30.70;99.90;;;;;;4974154;28;19976;-88
2023/07/09 10:43:20;;;;;;;;;;;30.60;99.90;;;;;;4973848;28;20212;-88
2023/07/09 10:45:47;;;;;;;;;;;30.80;99.90;;;;;;4958235;28;20436;-88
2023/07/09 10:48:17;;;;;;;;;;;30.80;99.90;;;;;;4958105;28;19933;-88
2023/07/09 10:50:47;;;;;;;;;;;30.80;99.90;;;;;;4968637;28;19925;-88
2023/07/09 10:53:21;;;;;;;;;;;30.80;99.90;;;;;;4963690;28;19972;-88
2023/07/09 10:55:53;;;;;;;;;;;30.90;99.90;;;;;;4956746;28;20282;-88
2023/07/09 10:58:22;;;;;;;;;;;30.80;99.90;;;;;;4958504;28;19930;-87
2023/07/09 11:00:48;;;;;;;;;;;30.90;99.90;;;;;;4970724;28;19937;-88
2023/07/09 11:03:14;;;;;;;;;;;30.90;99.90;;;;;;4973880;28;20378;-88
2023/07/09 11:05:39;;;;;;;;;;;30.90;99.90;;;;;;4957984;28;20008;-88
2023/07/09 11:08:08;;;;;;;;;;;30.90;99.90;;;;;;4958651;28;19930;-88
2023/07/09 11:10:36;;;;;;;;;;;31.00;99.90;;;;;;4970218;28;19926;-88
2023/07/09 11:13:05;;;;;;;;;;;31.00;99.90;;;;;;4965566;28;20267;-87
2023/07/09 11:15:32;;;;;;;;;;;31.00;99.90;;;;;;4958624;28;19933;-88
2023/07/09 11:17:59;;;;;;;;;;;31.10;99.90;;;;;;4974026;28;19930;-89
2023/07/09 11:20:27;;;;;;;;;;;31.10;99.90;;;;;;4958397;28;19929;-88
2023/07/09 11:23:00;;;;;;;;;;;31.00;99.90;;;;;;4973820;28;19932;-88
2023/07/09 11:25:29;;;;;;;;;;;31.00;99.90;;;;;;4972783;28;20316;-88
2023/07/09 11:28:03;;;;;;;;;;;31.10;99.90;;;;;;4958065;28;19985;-88
2023/07/09 11:30:29;;;;;;;;;;;31.20;99.90;;;;;;4961345;28;19937;-88
2023/07/09 11:32:58;;;;;;;;;;;31.20;99.90;;;;;;4957823;28;19926;-88
2023/07/09 11:35:25;;;;;;;;;;;31.30;99.90;;;;;;4973186;28;19929;-87
2023/07/09 11:37:52;;;;;;;;;;;31.30;99.90;;;;;;4957856;28;19937;-88
2023/07/09 11:40:19;;;;;;;;;;;31.40;99.90;;;;;;4972535;28;20281;-88
2023/07/09 11:42:55;;;;;;;;;;;31.40;99.90;;;;;;4957711;28;19969;-88
2023/07/09 11:45:25;;;;;;;;;;;31.40;99.90;;;;;;4971650;28;19930;-88
2023/07/09 11:47:55;;;;;;;;;;;31.40;99.90;;;;;;4957978;28;19926;-88
2023/07/09 11:50:22;;;;;;;;;;;31.40;99.90;;;;;;4956813;28;20091;-88
2023/07/09 11:52:51;;;;;;;;;;;31.40;99.90;;;;;;4972676;28;20019;-87
2023/07/09 11:55:24;;;;;;;;;;;31.40;99.90;;;;;;4956980;28;19930;-87
2023/07/09 11:57:54;;;;;;;;;;;31.50;99.90;;;;;;4972665;28;19937;-88
2023/07/09 12:00:20;;;;;;;;;;;31.50;99.90;;;;;;4954997;28;20405;-88
2023/07/09 12:02:46;;;;;;;;;;;31.50;99.90;;;;;;4957702;28;19987;-88
2023/07/09 12:05:11;;;;;;;;;;;31.50;99.90;;;;;;4957806;28;20022;-87
2023/07/09 12:07:37;;;;;;;;;;;31.50;99.90;;;;;;4957068;28;19930;-87
2023/07/09 12:10:04;;;;;;;;;;;31.50;99.90;;;;;;4953670;28;19996;-88
2023/07/09 12:12:29;;;;;;;;;;;31.70;99.90;;;;;;4953440;28;19926;-87
2023/07/09 12:14:55;;;;;;;;;;;31.80;99.90;;;;;;4973507;28;20165;-87
2023/07/09 12:17:26;;;;;;;;;;;31.90;99.90;;;;;;4957315;28;20282;-87
2023/07/09 12:19:52;;;;;;;;;;;31.80;99.90;;;;;;4970775;28;20024;-88
2023/07/09 12:22:20;;;;;;;;;;;31.70;99.90;;;;;;4956661;28;20388;-88
2023/07/09 12:24:48;;;;;;;;;;;31.70;99.90;;;;;;4971431;28;19934;-88
2023/07/09 12:27:17;;;;;;;;;;;31.70;99.90;;;;;;4955699;28;19933;-88
2023/07/09 12:29:43;;;;;;;;;;;31.80;99.90;;;;;;4956708;28;20013;-88
2023/07/09 12:32:11;;;;;;;;;;;31.80;99.90;;;;;;4956114;28;20008;-87
2023/07/09 12:34:37;;;;;;;;;;;31.80;99.90;;;;;;4972027;28;20373;-88
2023/07/09 12:37:03;;;;;;;;;;;31.70;99.90;;;;;;4953548;28;19953;-87
2023/07/09 12:39:29;;;;;;;;;;;31.70;99.90;;;;;;4983906;28;19933;-88
2023/07/09 12:41:56;;;;;;;;;;;31.70;99.90;;;;;;4955730;28;19925;-87
2023/07/09 12:44:22;;;;;;;;;;;31.70;99.90;;;;;;4956216;28;19930;-88
2023/07/09 12:46:49;;;;;;;;;;;31.70;99.90;;;;;;4956387;28;19952;-88
2023/07/09 12:49:20;;;;;;;;;;;31.80;99.90;;;;;;4955526;28;19951;-87
2023/07/09 12:51:46;;;;;;;;;;;31.90;99.90;;;;;;4953061;28;19941;-87
2023/07/09 12:54:14;;;;;;;;;;;31.90;99.90;;;;;;4971782;28;20024;-88
2023/07/09 12:56:40;;;;;;;;;;;32.00;99.90;;;;;;4955022;28;20008;-88
2023/07/09 12:59:17;;;;;;;;;;;32.10;99.90;;;;;;4955879;28;20446;-88
2023/07/09 13:01:47;;;;;;;;;;;32.10;99.90;;;;;;4955976;28;20361;-88
2023/07/09 13:04:13;;;;;;;;;;;32.10;99.90;;;;;;4955865;28;19936;-88
2023/07/09 13:06:38;;;;;;;;;;;32.10;99.90;;;;;;4952289;28;19930;-89
2023/07/09 13:09:20;;;;;;;;;;;32.20;99.90;;;;;;4976446;28;20019;-88
2023/07/09 13:11:46;;;;;;;;;;;32.10;99.90;;;;;;4974176;28;20503;-88
2023/07/09 13:14:16;;;;;;;;;;;32.10;99.90;;;;;;4975290;28;19949;-87
2023/07/09 13:16:41;;;;;;;;;;;32.00;99.90;;;;;;4959662;28;19933;-88
2023/07/09 13:19:07;;;;;;;;;;;32.10;99.90;;;;;;4964119;28;20388;-87
2023/07/09 13:21:33;;;;;;;;;;;32.10;99.90;;;;;;4969605;28;19942;-88
2023/07/09 13:23:58;;;;;;;;;;;32.00;99.90;;;;;;4978559;28;19926;-88
2023/07/09 13:26:24;;;;;;;;;;;32.10;99.90;;;;;;4965733;28;20024;-87
2023/07/09 13:28:51;;;;;;;;;;;32.10;99.90;;;;;;4978814;28;20330;-88
2023/07/09 13:31:18;;;;;;;;;;;32.20;99.90;;;;;;4976774;28;19933;-87
2023/07/09 13:33:44;;;;;;;;;;;32.30;99.90;;;;;;4967530;28;19930;-88
2023/07/09 13:36:10;;;;;;;;;;;32.30;99.90;;;;;;4960544;28;19926;-88
2023/07/09 13:38:36;;;;;;;;;;;32.20;99.90;;;;;;4969490;28;19949;-87
2023/07/09 13:41:10;;;;;;;;;;;32.30;99.90;;;;;;4985142;28;20003;-88
2023/07/09 13:43:36;;;;;;;;;;;32.40;99.90;;;;;;4959308;28;19932;-88
2023/07/09 13:46:03;;;;;;;;;;;32.50;99.90;;;;;;4970403;28;20004;-86
2023/07/09 13:48:30;;;;;;;;;;;32.50;99.90;;;;;;4968109;28;20020;-88
2023/07/09 13:50:56;;;;;;;;;;;32.50;99.90;;;;;;4963227;28;19925;-88
2023/07/09 13:53:23;;;;;;;;;;;32.40;99.10;;;;;;4958714;28;19937;-88
2023/07/09 13:55:50;;;;;;;;;;;32.30;99.90;;;;;;4959518;28;20338;-88
2023/07/09 13:58:16;;;;;;;;;;;32.20;99.90;;;;;;4959361;28;20006;-88
2023/07/09 14:00:43;;;;;;;;;;;32.10;99.90;;;;;;4959839;28;19925;-88
2023/07/09 14:03:14;;;;;;;;;;;32.00;99.90;;;;;;4959583;28;19930;-89
2023/07/09 14:05:39;;;;;;;;;;;31.90;99.90;;;;;;4955962;28;20049;-89
2023/07/09 14:08:07;;;;;;;;;;;31.80;99.90;;;;;;4979837;28;20025;-88
2023/07/09 14:10:33;;;;;;;;;;;31.80;99.90;;;;;;4989152;28;20309;-91
2023/07/09 14:12:58;;;;;;;;;;;31.70;99.90;;;;;;4989271;28;19926;-90
2023/07/09 14:15:24;;;;;;;;;;;31.60;99.90;;;;;;4974711;28;19944;-89
2023/07/09 14:17:50;;;;;;;;;;;31.50;99.90;;;;;;4959821;28;20368;-88
2023/07/09 14:20:17;;;;;;;;;;;31.70;99.90;;;;;;4970599;28;20083;-88
2023/07/09 14:22:43;;;;;;;;;;;31.70;99.90;;;;;;4954850;28;19925;-89
2023/07/09 14:25:14;;;;;;;;;;;31.80;99.90;;;;;;4965555;28;19925;-87
2023/07/09 14:27:39;;;;;;;;;;;31.70;99.90;;;;;;4963644;28;20384;-88
2023/07/09 14:30:06;;;;;;;;;;;31.60;99.90;;;;;;4967308;28;20400;-88
2023/07/09 14:32:34;;;;;;;;;;;31.50;99.90;;;;;;4976308;28;19929;-88
2023/07/09 14:35:00;;;;;;;;;;;31.50;99.90;;;;;;4965334;28;19929;-88
2023/07/09 14:37:27;;;;;;;;;;;31.40;99.90;;;;;;4946925;28;19941;-87
2023/07/09 14:39:53;;;;;;;;;;;31.30;99.90;;;;;;4965119;28;19942;-88
2023/07/09 14:42:18;;;;;;;;;;;31.30;99.90;;;;;;4946187;28;19984;-88
2023/07/09 14:44:44;;;;;;;;;;;31.10;99.90;;;;;;4985766;28;19930;-89
2023/07/09 14:47:17;;;;;;;;;;;30.90;99.90;;;;;;4997919;28;19933;-88
2023/07/09 14:49:42;;;;;;;;;;;30.80;99.90;;;;;;4955270;28;20056;-87
2023/07/09 14:52:12;;;;;;;;;;;30.60;99.90;;;;;;4955922;28;20137;-90
2023/07/09 14:54:37;;;;;;;;;;;30.30;99.90;;;;;;4942191;28;19934;-87
2023/07/09 14:57:08;;;;;;;;;;;30.20;99.90;;;;;;4956220;28;19933;-88
2023/07/09 14:59:34;;;;;;;;;;;29.90;99.90;;;;;;4955843;28;19936;-89
2023/07/09 15:01:59;;;;;;;;;;;29.60;99.90;;;;;;4955818;28;19933;-88
2023/07/09 15:04:29;;;;;;;;;;;29.40;99.90;;;;;;4961351;28;19929;-88
2023/07/09 15:06:58;;;;;;;;;;;29.10;99.90;;;;;;4961787;28;19929;-89
2023/07/09 15:09:25;;;;;;;;;;;28.90;99.90;;;;;;4961229;28;19930;-89
2023/07/09 15:11:52;;;;;;;;;;;28.80;99.90;;;;;;4962700;28;19973;-89
2023/07/09 15:14:17;;;;;;;;;;;28.60;99.90;;;;;;4960255;28;19957;-89
2023/07/09 15:16:43;;;;;;;;;;;28.40;99.90;;;;;;4973279;28;19933;-91
2023/07/09 15:19:12;;;;;;;;;;;28.20;99.90;;;;;;4963168;28;19969;-87
2023/07/09 15:21:38;;;;;;;;;;;28.00;99.90;;;;;;4953068;28;20364;-88
2023/07/09 15:24:04;;;;;;;;;;;27.80;99.90;;;;;;4960590;28;20025;-87
2023/07/09 15:26:30;;;;;;;;;;;27.40;99.90;;;;;;4976866;28;19934;-88
2023/07/09 15:28:56;;;;;;;;;;;26.90;99.90;;;;;;4956115;28;20024;-88
2023/07/09 15:31:22;;;;;;;;;;;26.40;99.90;;;;;;4956836;28;19951;-88
2023/07/09 15:33:50;;;;;;;;;;;25.80;99.90;;;;;;4973156;28;20020;-89
2023/07/09 15:36:16;;;;;;;;;;;25.70;99.90;;;;;;4968496;28;19933;-89
2023/07/09 15:38:42;;;;;;;;;;;25.30;99.90;;;;;;4957713;28;19930;-87
2023/07/09 15:41:12;;;;;;;;;;;25.10;99.90;;;;;;4961136;28;20050;-85
2023/07/09 15:43:38;;;;;;;;;;;24.80;99.90;;;;;;4968902;28;19941;-86
2023/07/09 15:46:04;;;;;;;;;;;24.40;99.90;;;;;;4965320;28;19934;-87
2023/07/09 15:48:36;;;;;;;;;;;24.20;99.90;;;;;;4961284;28;19992;-88
2023/07/09 15:51:10;;;;;;;;;;;23.80;99.90;;;;;;4969247;28;20123;-92
2023/07/09 15:53:43;;;;;;;;;;;23.60;99.90;;;;;;4959873;28;19929;-94
2023/07/09 15:56:12;;;;;;;;;;;23.30;99.90;;;;;;4997293;28;19933;-92
2023/07/09 15:58:51;;;;;;;;;;;22.90;99.90;;;;;;4967090;28;19979;-93